createdAt,value
2022-10-11T00:00:22.277Z,101147.83
2022-10-11T00:02:49.917Z,101147.20
2022-10-11T00:05:17.061Z,101143.86
2022-10-11T00:07:44.081Z,101144.45
2022-10-11T00:10:10.779Z,101140.30
2022-10-11T00:12:37.572Z,101135.42
2022-10-11T00:15:05.406Z,101132.56
2022-10-11T00:17:32.372Z,101131.59
2022-10-11T00:19:59.245Z,101130.15
2022-10-11T00:22:25.924Z,101130.02
2022-10-11T00:24:53.033Z,101128.34
2022-10-11T00:27:19.649Z,101132.14
2022-10-11T00:29:46.481Z,101128.39
2022-10-11T00:32:13.752Z,101135.23
2022-10-11T00:34:40.508Z,101132.93
2022-10-11T00:37:08.964Z,101134.61
2022-10-11T00:39:36.254Z,101132.29
2022-10-11T00:42:03.109Z,101131.66
2022-10-11T00:44:31.849Z,101131.52
2022-10-11T00:47:10.669Z,101134.34
2022-10-11T00:49:39.903Z,101130.04
2022-10-11T00:52:29.209Z,101124.89
2022-10-11T00:54:56.021Z,101127.97
2022-10-11T00:57:23.244Z,101127.29
2022-10-11T00:59:51.096Z,101127.67
2022-10-11T01:02:17.956Z,101127.67
2022-10-11T01:04:44.851Z,101130.79
2022-10-11T01:07:12.901Z,101130.02
2022-10-11T01:09:39.621Z,101128.98
2022-10-11T01:12:11.831Z,101128.19
2022-10-11T01:15:10.121Z,101127.19
2022-10-11T01:17:52.250Z,101129.83
2022-10-11T01:20:24.292Z,101131.05
2022-10-11T01:23:32.684Z,101135.75
2022-10-11T01:26:27.419Z,101138.38
2022-10-11T01:28:57.182Z,101140.42
2022-10-11T01:31:28.778Z,101136.05
2022-10-11T01:33:59.169Z,101136.47
2022-10-11T01:36:34.360Z,101135.77
2022-10-11T01:39:08.256Z,101139.73
2022-10-11T01:41:38.221Z,101143.73
2022-10-11T01:44:05.070Z,101143.39
2022-10-11T01:46:31.848Z,101145.58
2022-10-11T01:48:59.844Z,101145.64
2022-10-11T01:51:47.108Z,101142.89
2022-10-11T01:55:04.018Z,101145.57
2022-10-11T01:57:35.382Z,101143.95
2022-10-11T02:00:10.054Z,101142.80
2022-10-11T02:02:54.111Z,101144.13
2022-10-11T02:05:43.058Z,101148.89
2022-10-11T02:08:25.435Z,101146.44
2022-10-11T02:10:54.323Z,101145.39
2022-10-11T02:13:27.829Z,101149.91
2022-10-11T02:15:54.639Z,101148.77
2022-10-11T02:18:23.728Z,101144.84
2022-10-11T02:20:50.441Z,101143.00
2022-10-11T02:23:51.269Z,101139.36
2022-10-11T02:26:18.104Z,101139.38
2022-10-11T02:28:44.874Z,101137.85
2022-10-11T02:31:11.679Z,101135.94
2022-10-11T02:33:46.070Z,101138.45
2022-10-11T02:36:16.334Z,101142.39
2022-10-11T02:38:49.331Z,101144.09
2022-10-11T02:41:23.188Z,101142.83
2022-10-11T02:43:57.363Z,101141.92
2022-10-11T02:46:24.499Z,101140.67
2022-10-11T02:48:51.319Z,101143.07
2022-10-11T02:51:18.190Z,101140.14
2022-10-11T02:53:45.129Z,101137.06
2022-10-11T02:56:11.892Z,101139.54
2022-10-11T02:58:38.667Z,101139.44
2022-10-11T03:01:06.600Z,101141.60
2022-10-11T03:03:33.502Z,101142.95
2022-10-11T03:06:01.104Z,101139.02
2022-10-11T03:08:28.316Z,101138.41
2022-10-11T03:10:55.034Z,101137.62
2022-10-11T03:13:21.859Z,101141.23
2022-10-11T03:16:02.315Z,101138.16
2022-10-11T03:18:30.653Z,101138.71
2022-10-11T03:20:57.327Z,101136.90
2022-10-11T03:23:24.000Z,101135.23
2022-10-11T03:25:52.054Z,101137.21
2022-10-11T03:28:19.343Z,101134.89
2022-10-11T03:30:49.946Z,101135.40
2022-10-11T03:33:17.248Z,101133.84
2022-10-11T03:35:44.975Z,101137.52
2022-10-11T03:38:13.183Z,101140.50
2022-10-11T03:40:41.177Z,101138.21
2022-10-11T03:43:07.862Z,101139.84
2022-10-11T03:45:34.780Z,101139.20
2022-10-11T03:48:01.707Z,101138.59
2022-10-11T03:50:28.665Z,101135.19
2022-10-11T03:52:55.324Z,101138.20
2022-10-11T03:55:21.998Z,101134.39
2022-10-11T03:57:48.795Z,101137.81
2022-10-11T04:00:15.641Z,101136.20
2022-10-11T04:02:42.378Z,101135.92
2022-10-11T04:05:09.345Z,101140.72
2022-10-11T04:07:36.090Z,101145.64
2022-10-11T04:10:02.908Z,101148.98
2022-10-11T04:12:29.793Z,101153.15
2022-10-11T04:14:56.495Z,101152.73
2022-10-11T04:17:23.231Z,101150.08
2022-10-11T04:19:50.060Z,101152.52
2022-10-11T04:22:16.961Z,101151.56
2022-10-11T04:24:43.621Z,101153.13
2022-10-11T04:27:10.519Z,101155.08
2022-10-11T04:29:37.514Z,101155.03
2022-10-11T04:32:04.780Z,101158.90
2022-10-11T04:34:31.528Z,101160.44
2022-10-11T04:36:58.220Z,101157.17
2022-10-11T04:39:25.059Z,101159.81
2022-10-11T04:41:51.995Z,101158.27
2022-10-11T04:44:18.816Z,101158.98
2022-10-11T04:46:45.553Z,101162.81
2022-10-11T04:49:12.291Z,101162.05
2022-10-11T04:51:39.146Z,101157.48
2022-10-11T04:54:06.095Z,101157.33
2022-10-11T04:56:33.148Z,101152.52
2022-10-11T04:58:59.889Z,101158.86
2022-10-11T05:01:26.663Z,101158.31
2022-10-11T05:03:53.848Z,101155.02
2022-10-11T05:06:20.521Z,101155.38
2022-10-11T05:08:47.377Z,101152.31
2022-10-11T05:11:15.987Z,101151.67
2022-10-11T05:13:43.339Z,101154.69
2022-10-11T05:16:11.438Z,101157.58
2022-10-11T05:18:40.398Z,101157.35
2022-10-11T05:21:09.697Z,101158.65
2022-10-11T05:23:37.366Z,101158.44
2022-10-11T05:26:04.748Z,101155.77
2022-10-11T05:29:04.586Z,101155.80
2022-10-11T05:31:31.507Z,101150.07
2022-10-11T05:33:58.219Z,101148.39
2022-10-11T05:36:25.913Z,101146.02
2022-10-11T05:38:53.333Z,101147.69
2022-10-11T05:41:20.569Z,101145.17
2022-10-11T05:43:47.391Z,101145.17
2022-10-11T05:46:14.382Z,101147.48
2022-10-11T05:48:41.200Z,101147.40
2022-10-11T05:51:09.878Z,101145.25
2022-10-11T05:53:37.738Z,101148.48
2022-10-11T05:56:05.245Z,101153.29
2022-10-11T05:58:32.210Z,101153.38
2022-10-11T06:00:59.025Z,101156.33
2022-10-11T06:03:26.077Z,101159.64
2022-10-11T06:05:56.800Z,101161.10
2022-10-11T06:12:06.668Z,101163.05
2022-10-11T06:14:33.671Z,101166.48
2022-10-11T06:17:00.412Z,101160.16
2022-10-11T06:19:27.356Z,101161.64
2022-10-11T06:21:54.219Z,101160.88
2022-10-11T06:24:20.996Z,101161.25
2022-10-11T06:26:49.075Z,101158.75
2022-10-11T06:29:15.885Z,101158.14
2022-10-11T06:31:42.720Z,101153.30
2022-10-11T06:34:09.627Z,101156.44
2022-10-11T06:36:36.512Z,101150.05
2022-10-11T06:39:03.432Z,101147.09
2022-10-11T06:41:30.263Z,101143.77
2022-10-11T06:43:57.612Z,101145.48
2022-10-11T06:46:25.880Z,101149.16
2022-10-11T06:48:52.628Z,101146.16
2022-10-11T06:51:21.096Z,101143.49
2022-10-11T06:53:55.836Z,101143.52
2022-10-11T06:56:23.132Z,101143.10
2022-10-11T06:58:51.354Z,101137.76
2022-10-11T07:01:20.108Z,101137.13
2022-10-11T07:03:47.508Z,101137.70
2022-10-11T07:06:17.107Z,101142.02
2022-10-11T07:08:43.992Z,101139.58
2022-10-11T07:11:17.934Z,101140.95
2022-10-11T07:13:49.259Z,101137.67
2022-10-11T07:16:15.877Z,101136.98
2022-10-11T07:18:42.572Z,101133.77
2022-10-11T07:21:11.395Z,101130.67
2022-10-11T07:23:38.361Z,101127.45
2022-10-11T07:26:05.927Z,101124.59
2022-10-11T07:28:33.358Z,101125.17
2022-10-11T07:31:04.267Z,101122.10
2022-10-11T07:33:30.953Z,101122.02
2022-10-11T07:35:58.001Z,101118.98
2022-10-11T07:38:25.067Z,101119.09
2022-10-11T07:40:51.718Z,101115.48
2022-10-11T07:43:18.388Z,101111.11
2022-10-11T07:45:47.801Z,101108.25
2022-10-11T07:48:15.054Z,101105.77
2022-10-11T07:50:41.795Z,101101.56
2022-10-11T07:53:09.116Z,101102.58
2022-10-11T07:55:40.241Z,101104.23
2022-10-11T07:58:08.286Z,101099.69
2022-10-11T08:00:35.027Z,101096.91
2022-10-11T08:03:05.617Z,101099.86
2022-10-11T08:05:32.629Z,101099.70
2022-10-11T08:07:59.380Z,101100.59
2022-10-11T08:10:26.710Z,101101.56
2022-10-11T08:12:58.601Z,101098.98
2022-10-11T08:15:29.263Z,101098.69
2022-10-11T08:17:55.909Z,101093.52
2022-10-11T08:20:22.669Z,101099.17
2022-10-11T08:22:49.362Z,101100.75
2022-10-11T08:25:16.292Z,101098.80
2022-10-11T08:27:43.264Z,101094.60
2022-10-11T08:30:10.681Z,101088.02
2022-10-11T08:32:37.405Z,101085.39
2022-10-11T08:35:04.420Z,101085.46
2022-10-11T08:38:50.589Z,101081.77
2022-10-11T08:41:46.263Z,101077.79
2022-10-11T08:44:37.338Z,101077.23
2022-10-11T08:47:33.288Z,101077.29
2022-10-11T08:50:45.101Z,101078.82
2022-10-11T08:53:36.600Z,101076.16
2022-10-11T08:56:03.749Z,101074.50
2022-10-11T08:58:55.739Z,101070.93
2022-10-11T09:01:24.158Z,101072.70
2022-10-11T09:03:51.407Z,101066.31
2022-10-11T09:06:24.828Z,101070.20
2022-10-11T09:09:09.769Z,101068.87
2022-10-11T09:11:58.985Z,101065.80
2022-10-11T09:14:48.774Z,101063.65
2022-10-11T09:17:49.872Z,101064.77
2022-10-11T09:20:31.793Z,101067.20
2022-10-11T09:23:19.710Z,101065.39
2022-10-11T09:25:52.129Z,101062.22
2022-10-11T09:28:50.663Z,101066.23
2022-10-11T09:31:17.476Z,101064.05
2022-10-11T09:33:48.928Z,101064.33
2022-10-11T09:36:20.259Z,101059.19
2022-10-11T09:39:26.014Z,101054.48
2022-10-11T09:42:07.029Z,101054.91
2022-10-11T09:44:51.896Z,101054.53
2022-10-11T09:47:26.352Z,101058.80
2022-10-11T09:49:56.925Z,101055.06
2022-10-11T09:52:23.916Z,101046.55
2022-10-11T09:54:59.124Z,101045.61
2022-10-11T09:57:33.214Z,101043.87
2022-10-11T10:00:18.663Z,101043.36
2022-10-11T10:02:58.733Z,101041.90
2022-10-11T10:06:29.860Z,101035.68
2022-10-11T10:09:24.158Z,101038.54
2022-10-11T10:11:50.870Z,101038.69
2022-10-11T10:14:28.355Z,101036.34
2022-10-11T10:17:00.781Z,101032.63
2022-10-11T10:19:27.457Z,101026.16
2022-10-11T10:21:54.207Z,101024.46
2022-10-11T10:24:27.853Z,101023.89
2022-10-11T10:27:15.004Z,101020.06
2022-10-11T10:29:41.632Z,101013.06
2022-10-11T10:32:22.375Z,101013.08
2022-10-11T10:35:13.807Z,101011.89
2022-10-11T10:37:59.321Z,101011.27
2022-10-11T10:40:58.154Z,101010.91
2022-10-11T10:43:30.059Z,101009.50
2022-10-11T10:46:23.936Z,101006.65
2022-10-11T10:52:03.269Z,100996.04
2022-10-11T10:54:48.859Z,100992.20
2022-10-11T10:57:32.207Z,100987.88
2022-10-11T11:00:19.235Z,100985.91
2022-10-11T11:03:23.552Z,100976.56
2022-10-11T11:06:26.547Z,100980.98
2022-10-11T11:09:06.769Z,100976.20
2022-10-11T11:16:48.922Z,100968.17
2022-10-11T11:19:31.445Z,100966.23
2022-10-11T11:22:07.501Z,100959.41
2022-10-11T11:24:47.250Z,100957.80
2022-10-11T11:27:36.428Z,100955.32
2022-10-11T11:30:17.202Z,100953.96
2022-10-11T11:32:45.868Z,100952.82
2022-10-11T11:35:25.856Z,100954.04
2022-10-11T11:38:01.252Z,100953.27
2022-10-11T11:40:38.789Z,100950.92
2022-10-11T11:43:21.677Z,100953.95
2022-10-11T11:46:00.645Z,100944.71
2022-10-11T11:48:27.562Z,100938.16
2022-10-11T11:51:08.022Z,100938.70
2022-10-11T11:53:46.192Z,100941.73
2022-10-11T11:56:26.371Z,100938.27
2022-10-11T11:59:03.276Z,100938.48
2022-10-11T12:01:35.894Z,100937.61
2022-10-11T12:04:05.120Z,100936.38
2022-10-11T12:06:32.882Z,100930.58
2022-10-11T12:09:03.700Z,100925.23
2022-10-11T12:11:42.092Z,100921.63
2022-10-11T12:14:27.545Z,100926.55
2022-10-11T12:17:19.649Z,100921.06
2022-10-11T12:20:17.004Z,100921.30
2022-10-11T12:22:49.743Z,100924.14
2022-10-11T12:25:18.665Z,100924.59
2022-10-11T12:27:47.376Z,100921.41
2022-10-11T12:30:59.139Z,100917.90
2022-10-11T12:33:45.949Z,100913.98
2022-10-11T12:36:31.181Z,100917.75
2022-10-11T12:39:19.638Z,100918.36
2022-10-11T12:41:50.625Z,100919.64
2022-10-11T12:44:27.300Z,100917.98
2022-10-11T12:46:54.066Z,100920.56
2022-10-11T12:49:24.012Z,100918.86
2022-10-11T12:52:04.655Z,100918.27
2022-10-11T12:54:37.380Z,100916.10
2022-10-11T12:57:23.161Z,100913.39
2022-10-11T12:59:49.880Z,100913.26
2022-10-11T13:02:44.486Z,100910.90
2022-10-11T13:05:30.835Z,100913.38
2022-10-11T13:08:02.534Z,100908.42
2022-10-11T13:10:33.504Z,100910.19
2022-10-11T13:13:04.253Z,100913.50
2022-10-11T13:15:30.966Z,100914.42
2022-10-11T13:17:59.173Z,100911.66
2022-10-11T13:20:28.302Z,100909.64
2022-10-11T13:22:55.463Z,100912.62
2022-10-11T13:25:36.946Z,100911.52
2022-10-11T13:28:03.716Z,100907.97
2022-10-11T13:30:34.504Z,100909.61
2022-10-11T13:33:01.341Z,100909.33
2022-10-11T13:35:37.834Z,100905.23
2022-10-11T13:38:05.218Z,100904.98
2022-10-11T13:40:32.194Z,100902.55
2022-10-11T13:42:59.070Z,100904.36
2022-10-11T13:45:27.493Z,100902.20
2022-10-11T13:47:54.461Z,100902.90
2022-10-11T13:50:31.742Z,100898.81
2022-10-11T13:53:10.718Z,100896.45
2022-10-11T13:55:53.767Z,100889.56
2022-10-11T13:58:40.605Z,100892.58
2022-10-11T14:01:20.918Z,100890.04
2022-10-11T14:03:49.825Z,100890.64
2022-10-11T14:06:16.457Z,100891.66
2022-10-11T14:08:45.190Z,100892.11
2022-10-11T14:11:12.316Z,100891.89
2022-10-11T14:13:40.028Z,100888.92
2022-10-11T14:16:15.877Z,100881.36
2022-10-11T14:18:57.771Z,100885.83
2022-10-11T14:21:45.266Z,100888.02
2022-10-11T14:24:12.245Z,100887.85
2022-10-11T14:26:40.402Z,100886.36
2022-10-11T14:29:09.395Z,100883.61
2022-10-11T14:31:41.505Z,100897.96
2022-10-11T14:34:11.798Z,100897.14
2022-10-11T14:36:39.601Z,100900.38
2022-10-11T14:39:13.774Z,100902.07
2022-10-11T14:41:40.625Z,100904.14
2022-10-11T14:44:07.328Z,100903.16
2022-10-11T14:46:35.892Z,100901.23
2022-10-11T14:49:02.593Z,100901.23
2022-10-11T14:51:31.213Z,100904.52
2022-10-11T14:53:58.102Z,100904.97
2022-10-11T14:56:24.877Z,100902.36
2022-10-11T14:58:51.767Z,100901.68
2022-10-11T15:01:18.461Z,100901.27
2022-10-11T15:03:45.197Z,100902.73
2022-10-11T15:06:18.607Z,100900.45
2022-10-11T15:08:45.326Z,100903.08
2022-10-11T15:11:13.201Z,100897.30
2022-10-11T15:13:39.887Z,100900.69
2022-10-11T15:16:07.495Z,100904.77
2022-10-11T15:18:34.455Z,100898.62
2022-10-11T15:21:01.110Z,100899.56
2022-10-11T15:23:28.149Z,100903.48
2022-10-11T15:25:54.770Z,100903.95
2022-10-11T15:28:30.614Z,100905.31
2022-10-11T15:30:57.593Z,100907.14
2022-10-11T15:33:24.311Z,100905.86
2022-10-11T15:35:51.487Z,100902.41
2022-10-11T15:38:20.816Z,100904.55
2022-10-11T15:40:47.776Z,100908.77
2022-10-11T15:43:14.985Z,100907.95
2022-10-11T15:45:41.841Z,100906.83
2022-10-11T15:48:11.861Z,100905.61
2022-10-11T15:50:38.663Z,100905.40
2022-10-11T15:53:07.232Z,100911.92
2022-10-11T15:55:34.661Z,100907.93
2022-10-11T15:58:01.852Z,100913.78
2022-10-11T16:00:28.747Z,100914.55
2022-10-11T16:02:55.527Z,100917.66
2022-10-11T16:05:24.740Z,100919.48
2022-10-11T16:07:52.042Z,100918.41
2022-10-11T16:10:18.866Z,100923.71
2022-10-11T16:12:45.832Z,100921.54
2022-10-11T16:15:12.605Z,100923.92
2022-10-11T16:17:39.244Z,100922.00
2022-10-11T16:20:06.990Z,100923.71
2022-10-11T16:22:34.472Z,100927.70
2022-10-11T16:25:02.271Z,100930.66
2022-10-11T16:27:29.060Z,100928.20
2022-10-11T16:29:55.857Z,100926.77
2022-10-11T16:32:23.298Z,100924.27
2022-10-11T16:34:50.139Z,100921.49
2022-10-11T19:52:49.250Z,100908.05
2022-10-11T19:55:16.819Z,100904.73
2022-10-11T19:57:43.734Z,100904.17
2022-10-11T20:00:11.858Z,100902.52
2022-10-11T20:03:35.876Z,100896.48
2022-10-11T20:06:05.899Z,100898.77
2022-10-11T20:08:33.821Z,100897.51
2022-10-11T20:11:05.049Z,100896.16
2022-10-11T20:13:35.041Z,100891.57
2022-10-11T20:16:13.773Z,100891.62
2022-10-11T20:18:51.100Z,100890.15
2022-10-11T20:21:22.527Z,100886.65
2022-10-11T20:23:51.065Z,100886.75
2022-10-11T20:26:23.324Z,100881.96
2022-10-11T20:28:56.104Z,100881.96
2022-10-11T20:31:33.140Z,100880.33
2022-10-11T20:34:02.249Z,100880.60
2022-10-11T20:36:30.492Z,100880.75
2022-10-11T20:39:01.383Z,100879.98
2022-10-11T20:41:34.148Z,100885.73
2022-10-11T20:44:02.537Z,100880.50
2022-10-11T20:46:31.867Z,100879.21
2022-10-11T20:49:02.219Z,100878.56
2022-10-11T20:51:32.211Z,100880.92
2022-10-11T20:54:00.573Z,100881.88
2022-10-11T20:56:30.178Z,100880.25
2022-10-11T20:59:01.645Z,100878.19
2022-10-11T21:01:39.698Z,100878.30
2022-10-11T21:04:08.146Z,100877.45
2022-10-11T21:06:37.283Z,100879.61
2022-10-11T21:09:04.488Z,100877.34
2022-10-11T21:11:32.395Z,100873.07
2022-10-11T21:14:04.053Z,100874.94
2022-10-11T21:16:31.097Z,100875.23
2022-10-11T21:18:59.399Z,100870.80
2022-10-11T21:21:26.932Z,100867.91
2022-10-11T21:23:58.961Z,100869.99
2022-10-11T21:26:26.502Z,100867.60
2022-10-11T21:28:53.325Z,100868.25
2022-10-11T21:31:20.691Z,100864.14
2022-10-11T21:33:47.595Z,100862.46
2022-10-11T21:36:16.150Z,100863.94
2022-10-11T21:38:43.462Z,100858.13
2022-10-11T21:41:14.956Z,100858.34
2022-10-11T21:43:41.959Z,100859.04
2022-10-11T21:46:14.324Z,100858.91
2022-10-11T21:48:41.375Z,100860.09
2022-10-11T21:51:16.915Z,100857.83
2022-10-11T21:53:44.184Z,100858.02
2022-10-11T21:56:11.396Z,100854.97
2022-10-11T21:58:38.550Z,100858.05
2022-10-11T22:01:06.192Z,100857.59
2022-10-11T22:03:33.186Z,100855.25
2022-10-11T22:06:03.691Z,100857.98
2022-10-11T22:08:31.288Z,100859.34
2022-10-11T22:10:59.677Z,100860.44
2022-10-11T22:13:27.371Z,100862.02
2022-10-11T22:15:56.495Z,100864.35
2022-10-11T22:18:30.907Z,100858.48
2022-10-11T22:21:09.731Z,100862.67
2022-10-11T22:23:36.738Z,100861.66
2022-10-11T22:26:08.682Z,100860.79
2022-10-11T22:28:35.944Z,100862.10
2022-10-11T22:31:04.960Z,100861.13
2022-10-11T22:33:32.488Z,100861.23
2022-10-11T22:36:00.087Z,100858.49
2022-10-11T22:38:27.376Z,100855.59
2022-10-11T22:40:55.447Z,100856.17
2022-10-11T22:43:22.940Z,100857.09
2022-10-11T22:45:50.618Z,100858.80
2022-10-11T22:48:17.940Z,100858.45
2022-10-11T22:50:44.779Z,100857.60
2022-10-11T22:53:12.439Z,100856.08
2022-10-11T22:55:39.329Z,100854.11
2022-10-11T22:58:14.879Z,100847.76
2022-10-11T23:01:04.749Z,100849.73
2022-10-11T23:21:53.428Z,100851.50
